Latest Weather Observations for Dennes Point

IDT60801

Issued at 7:32 am EDT Tuesday 6 December 2016 (issued every 30 minutes, with the page automatically refreshed every 10 minutes)

About weather observations | Map of weather stations | Latest weather observations for TAS | Other Formats
Station Details ID: 094255 Name: DENNES POINT Lat: -43.06 Lon: 147.36 Height: 5.67 m
Data from the previous 72 hours. | See also: Recent months at Dennes Point
Date/Time
EDT
Temp
°C
App
Temp
°C
Dew
Point
°C
Rel
Hum
%
Delta-T
°C
Wind Press
QNH
hPa
Press
MSL
hPa
Rain since
9am
mm
Dir  Spd
km/h
Gust
km/h
Spd
kts
Gust
kts
06/07:30am 10.9 9.1 7.0 77 1.9 N 6 7 3 4 1011.4 1011.3 0.0
06/07:00am 10.7 8.8 7.4 80 1.6 W 7 13 4 7 1011.5 1011.4 0.0
06/06:30am 11.1 8.6 6.5 73 2.2 SW 9 13 5 7 1011.4 1011.3 0.0
06/06:00am 11.2 9.0 6.1 71 2.4 SW 7 15 4 8 1011.0 1010.9 0.0
06/05:30am 11.3 8.3 6.0 70 2.5 W 11 13 6 7 1010.9 1010.8 0.0
06/05:00am 11.1 8.9 6.3 72 2.3 SSW 7 9 4 5 1010.8 1010.7 0.0
06/04:30am 11.0 8.9 5.7 70 2.4 SSW 6 9 3 5 1010.4 1010.3 0.0
06/04:00am 10.6 8.6 6.2 74 2.1 SW 6 7 3 4 1010.2 1010.1 0.0
06/03:30am 10.8 8.9 6.6 75 2.0 SW 6 7 3 4 1010.6 1010.5 0.0
06/03:00am 11.0 7.9 5.7 70 2.5 WSW 11 15 6 8 1011.2 1011.1 0.0
06/02:30am 10.2 7.7 6.4 77 1.8 SSW 9 9 5 5 1010.8 1010.7 0.0
06/02:00am 9.7 7.0 5.7 76 1.8 SSW 9 13 5 7 1011.1 1011.0 0.0
06/01:30am 9.8 6.7 5.6 75 1.9 SSW 11 15 6 8 1011.2 1011.1 0.0
06/01:00am 9.7 7.3 4.5 70 2.3 S 6 9 3 5 1011.3 1011.2 0.0
06/12:30am 11.5 9.8 4.0 60 3.3 SW 2 6 1 3 1011.7 1011.6 0.0
06/12:00am 12.2 9.8 5.1 62 3.3 NW 7 11 4 6 1012.1 1012.0 0.0
 
Date/Time
EDT
Temp
°C
App
Temp
°C
Dew
Point
°C
Rel
Hum
%
Delta-T
°C
Wind Press
QNH
hPa
Press
MSL
hPa
Rain since
9am
mm
Dir  Spd
km/h
Gust
km/h
Spd
kts
Gust
kts
05/11:30pm 12.7 8.2 4.4 57 3.8 WNW 17 20 9 11 1012.0 1011.9 0.0
05/11:00pm 13.4 7.7 5.1 57 3.9 W 24 30 13 16 1011.7 1011.6 0.0
05/10:30pm 13.6 8.1 4.2 53 4.3 W 22 32 12 17 1011.9 1011.8 0.0
05/10:00pm 13.6 8.2 4.5 54 4.2 W 22 35 12 19 1012.0 1011.9 0.0
05/09:30pm 13.7 7.1 6.1 60 3.6 W 30 35 16 19 1011.5 1011.4 0.0
05/09:00pm 13.8 6.6 5.7 58 3.8 WSW 33 43 18 23 1010.1 1010.0 0.0
05/08:30pm 14.3 7.1 5.7 56 4.1 WSW 33 44 18 24 1010.0 1009.9 0.0
05/08:00pm 15.2 8.6 6.2 55 4.3 WSW 30 37 16 20 1009.8 1009.7 0.0
05/07:30pm 15.9 9.6 5.8 51 4.9 WSW 28 35 15 19 1009.4 1009.3 0.0
05/07:00pm 16.4 9.3 5.4 48 5.3 SW 32 43 17 23 1009.0 1008.9 0.0
05/06:30pm 17.8 11.8 5.1 43 6.1 WSW 26 35 14 19 1008.7 1008.6 0.0
05/06:00pm 18.4 13.3 5.9 44 6.1 WSW 22 30 12 16 1008.2 1008.1 0.0
05/05:30pm 18.9 12.5 5.4 41 6.6 WSW 28 37 15 20 1008.0 1007.9 0.0
05/05:00pm 19.1 13.3 6.2 43 6.4 WSW 26 35 14 19 1007.8 1007.7 0.0
05/04:30pm 19.8 14.0 6.2 41 6.8 WSW 26 35 14 19 1007.5 1007.4 0.0
05/04:00pm 19.9 13.0 6.3 41 6.8 WSW 32 44 17 24 1007.2 1007.1 0.0
05/03:30pm 20.1 14.4 6.8 42 6.7 WSW 26 37 14 20 1006.8 1006.7 0.0
05/03:00pm 20.0 13.2 6.7 42 6.7 W 32 41 17 22 1006.5 1006.4 0.0
05/02:30pm 20.1 13.3 6.8 42 6.7 WSW 32 37 17 20 1005.9 1005.8 0.0
05/02:00pm 20.3 13.2 6.6 41 6.9 WSW 33 44 18 24 1005.7 1005.6 0.0
05/01:30pm 20.9 15.6 6.8 40 7.2 W 24 35 13 19 1005.2 1005.1 0.0
05/01:00pm 20.4 14.3 8.1 45 6.4 WSW 30 41 16 22 1004.5 1004.4 0.0
05/12:53pm 20.7 15.2 9.3 48 6.1 WSW 28 48 15 26 1004.4 1004.3 0.0
05/12:30pm 20.9 15.7 8.9 46 6.3 WSW 26 37 14 20 1004.1 1004.0 0.0
05/12:00pm 20.2 15.6 9.5 50 5.7 WSW 24 35 13 19 1003.5 1003.4 0.0
05/11:37am 18.9 13.4 9.1 53 5.1 W 28 48 15 26 1003.2 1003.1 0.0
05/11:30am 19.0 14.8 8.4 50 5.5 W 20 32 11 17 1003.0 1002.9 0.0
05/11:00am 18.7 12.9 7.8 49 5.6 WSW 28 43 15 23 1002.5 1002.4 0.0
05/10:34am 18.8 9.7 6.9 46 6.0 WSW 44 65 24 35 1001.5 1001.5 0.0
05/10:30am 19.1 10.8 7.8 48 5.8 W 41 57 22 31 1001.6 1001.6 0.0
05/10:16am 19.2 12.3 7.3 46 6.0 W 33 54 18 29 1001.7 1001.7 0.0
05/10:00am 18.9 12.5 7.0 46 6.0 W 30 39 16 21 1001.9 1001.9 0.0
05/09:30am 18.2 13.3 7.0 48 5.6 W 22 30 12 16 1001.7 1001.7 0.0
05/09:00am 18.0 11.6 6.8 48 5.6 WSW 30 43 16 23 1001.2 1001.2 2.4
05/08:30am 17.3 10.9 6.8 50 5.2 W 30 44 16 24 1000.8 1000.8 2.4
05/08:00am 16.7 11.5 5.6 48 5.4 WNW 22 35 12 19 1000.4 1000.4 2.4
05/07:30am 16.6 9.6 6.1 50 5.1 W 32 52 17 28 999.5 999.5 2.4
05/07:26am 16.6 9.9 5.6 48 5.3 W 30 52 16 28 999.4 999.4 2.4
05/07:00am 16.8 11.1 6.6 51 5.1 W 26 41 14 22 999.1 999.1 2.4
05/06:30am 16.9 10.1 7.5 54 4.7 W 33 57 18 31 998.0 998.0 2.4
05/06:27am 16.9 10.5 8.6 58 4.3 W 32 50 17 27 997.8 997.8 2.4
05/06:00am 17.6 11.8 10.7 64 3.7 WNW 32 48 17 26 997.1 997.1 2.4
05/05:30am 17.7 13.2 12.6 72 2.8 WSW 28 41 15 22 996.3 996.3 2.4
05/05:16am 18.6 14.6 13.0 70 3.2 W 26 50 14 27 995.5 995.5 2.4
05/05:00am 18.9 16.0 14.0 73 2.8 WNW 22 33 12 18 994.8 994.8 2.4
05/04:30am 18.6 17.6 15.7 83 1.7 NNW 15 22 8 12 994.0 994.0 2.4
05/04:00am 17.9 15.8 15.3 85 1.5 N 20 28 11 15 993.5 993.5 2.0
05/03:30am 18.1 15.6 15.2 83 1.7 N 22 30 12 16 993.2 993.2 1.6
05/03:00am 18.2 15.2 14.7 80 2.0 NNE 24 35 13 19 993.8 993.8 1.0
05/02:30am 19.7 15.5 13.4 67 3.6 NNE 28 39 15 21 993.6 993.6 0.0
05/02:00am 19.1 14.4 13.1 68 3.4 N 30 39 16 21 993.5 993.5 0.0
05/01:51am 18.8 14.4 13.0 69 3.3 N 28 37 15 20 993.5 993.5 0.0
05/01:30am 18.4 16.9 11.9 66 3.6 NE 11 17 6 9 994.1 994.1 0.0
05/01:00am 19.0 16.9 11.3 61 4.2 NNE 13 20 7 11 995.8 995.8 0.0
05/12:30am 19.5 17.1 11.3 59 4.5 N 15 22 8 12 996.7 996.7 0.0
05/12:00am 20.2 14.3 10.6 54 5.2 N 32 48 17 26 997.3 997.3 0.0
 
Date/Time
EDT
Temp
°C
App
Temp
°C
Dew
Point
°C
Rel
Hum
%
Delta-T
°C
Wind Press
QNH
hPa
Press
MSL
hPa
Rain since
9am
mm
Dir  Spd
km/h
Gust
km/h
Spd
kts
Gust
kts
04/11:30pm 19.2 14.4 11.7 62 4.1 N 28 39 15 21 998.2 998.2 0.0
04/11:00pm 19.2 13.7 11.7 62 4.2 NNE 32 39 17 21 998.6 998.6 0.0
04/10:30pm 19.6 14.3 11.1 58 4.6 NNE 30 35 16 19 999.1 999.1 0.0
04/10:27pm 19.8 14.8 11.0 57 4.8 NNE 28 35 15 19 999.3 999.3 0.0
04/10:00pm 19.5 17.7 11.0 58 4.7 NNW 11 17 6 9 1000.2 1000.2 0.0
04/09:30pm 20.2 15.0 10.3 53 5.3 N 28 35 15 19 1000.4 1000.4 0.0
04/09:00pm 19.6 15.2 11.6 60 4.4 NNE 26 30 14 16 1000.5 1000.5 0.0
04/08:30pm 19.8 16.0 11.3 58 4.7 NNE 22 28 12 15 1000.8 1000.8 0.0
04/08:00pm 20.0 15.8 11.2 57 4.9 NNE 24 28 13 15 1001.2 1001.2 0.0
04/07:30pm 20.1 15.5 11.1 56 4.9 NNE 26 30 14 16 1001.4 1001.4 0.0
04/07:00pm 20.2 16.8 11.1 56 5.0 NNE 20 28 11 15 1001.8 1001.8 0.0
04/06:30pm 20.0 19.0 11.0 56 4.9 N 7 19 4 10 1002.5 1002.4 0.0
04/06:00pm 20.0 19.6 12.3 61 4.3 SW 6 9 3 5 1002.6 1002.5 0.0
04/05:30pm 20.2 20.0 11.9 59 4.6 NNW 4 6 2 3 1003.2 1003.1 0.0
04/05:00pm 20.9 19.8 11.8 56 5.1 ESE 9 13 5 7 1004.0 1003.9 0.0
04/04:30pm 21.1 20.3 11.7 55 5.2 ESE 7 11 4 6 1004.7 1004.6 0.0
04/04:00pm 20.9 19.6 10.1 50 5.9 SE 7 13 4 7 1005.3 1005.2 0.0
04/03:30pm 20.3 17.2 10.4 53 5.4 ESE 17 22 9 12 1005.8 1005.7 0.0
04/03:00pm 20.1 16.8 10.8 55 5.1 SE 19 26 10 14 1006.4 1006.3 0.0
04/02:30pm 19.7 17.0 11.7 60 4.4 ESE 17 24 9 13 1007.3 1007.2 0.0
04/02:00pm 20.4 17.7 10.5 53 5.4 ESE 15 22 8 12 1008.0 1007.9 0.0
04/01:30pm 20.0 17.2 10.1 53 5.3 ESE 15 19 8 10 1008.5 1008.4 0.0
04/01:00pm 19.9 17.5 10.0 53 5.3 ESE 13 15 7 8 1009.2 1009.1 0.0
04/12:30pm 19.3 17.3 10.0 55 5.0 ESE 11 17 6 9 1009.5 1009.4 0.0
04/12:00pm 18.9 16.9 10.2 57 4.7 ESE 11 15 6 8 1010.1 1010.0 0.0
04/11:30am 17.9 16.2 9.8 59 4.3 E 9 15 5 8 1010.6 1010.5 0.0
04/11:00am 17.1 15.6 9.3 60 4.1 E 7 13 4 7 1011.3 1011.2 0.0
04/10:30am 16.4 14.9 9.1 62 3.8 E 7 9 4 5 1011.8 1011.7 0.0
04/10:00am 15.6 13.5 9.7 68 3.1 ESE 11 13 6 7 1012.0 1011.9 0.0
04/09:30am 15.6 14.1 9.3 66 3.2 NE 7 9 4 5 1012.3 1012.2 0.0
04/09:00am 15.3 14.5 9.7 69 2.9 NE 4 6 2 3 1012.5 1012.4 0.0
04/08:30am 14.7 14.1 10.3 75 2.3 E 4 7 2 4 1012.6 1012.5 0.0
04/08:00am 13.5 12.6 9.2 75 2.2 ENE 4 6 2 3 1013.1 1013.0 0.0
04/07:30am 12.4 12.2 8.9 79 1.8 CALM 0 0 0 0 1013.4 1013.3 0.0
04/07:00am 11.0 9.3 8.4 84 1.3 SSW 7 9 4 5 1013.6 1013.6 0.0
04/06:30am 9.9 7.7 7.7 86 1.1 S 9 11 5 6 1013.4 1013.3 0.0
04/06:00am 9.2 6.9 7.5 89 0.8 S 9 11 5 6 1013.2 1013.1 0.0
04/05:30am 8.9 5.8 7.4 90 0.7 S 13 15 7 8 1013.0 1012.9 0.0
04/05:00am 8.9 6.2 7.5 91 0.7 S 11 13 6 7 1013.1 1013.0 0.0
04/04:30am 9.3 6.3 7.9 91 0.7 S 13 15 7 8 1013.4 1013.3 0.0
04/04:00am 9.4 6.8 7.8 90 0.8 S 11 13 6 7 1013.5 1013.4 0.0
04/03:30am 9.5 7.4 8.1 91 0.7 SSW 9 9 5 5 1013.8 1013.8 0.0
04/03:00am 9.6 7.9 8.4 92 0.6 SSW 7 9 4 5 1014.0 1014.0 0.0
04/02:30am 9.4 7.8 8.0 91 0.7 SSW 6 7 3 4 1014.4 1014.4 0.0
04/02:00am 9.9 8.2 8.5 91 0.7 S 7 7 4 4 1014.6 1014.6 0.0
04/01:30am 10.3 8.7 8.7 90 0.8 SSW 7 9 4 5 1014.9 1014.9 0.0
04/01:00am 10.4 8.9 9.0 91 0.7 SW 7 9 4 5 1015.0 1015.0 0.0
04/12:30am 10.1 8.1 8.7 91 0.7 SW 9 13 5 7 1015.1 1015.1 0.0
04/12:00am 10.4 8.0 8.7 89 0.8 SSW 11 13 6 7 1015.2 1015.2 0.0
 
Date/Time
EDT
Temp
°C
App
Temp
°C
Dew
Point
°C
Rel
Hum
%
Delta-T
°C
Wind Press
QNH
hPa
Press
MSL
hPa
Rain since
9am
mm
Dir  Spd
km/h
Gust
km/h
Spd
kts
Gust
kts
03/11:30pm 10.7 8.7 8.6 87 1.0 SW 9 13 5 7 1015.1 1015.1 0.0
03/11:00pm 11.3 9.4 9.0 86 1.1 SW 9 15 5 8 1015.2 1015.2 0.0
03/10:30pm 11.8 10.3 8.3 79 1.7 SW 6 7 3 4 1015.1 1015.1 0.0
03/10:00pm 13.0 11.7 7.5 69 2.7 SSE 4 6 2 3 1015.1 1015.1 0.0
03/09:30pm 13.2 11.4 8.1 71 2.5 SSE 7 13 4 7 1015.1 1015.1 0.0
03/09:00pm 13.2 11.3 8.9 75 2.2 S 9 13 5 7 1015.0 1015.0 0.0
03/08:30pm 13.3 11.7 8.8 74 2.3 SSE 7 13 4 7 1014.8 1014.8 0.0
03/08:00pm 13.5 11.5 8.8 73 2.4 SSE 9 15 5 8 1014.7 1014.7 0.0
03/07:30pm 13.8 11.4 8.8 72 2.5 SSE 11 20 6 11 1014.4 1014.4 0.0
03/07:00pm 14.4 11.7 9.0 70 2.7 SSE 13 20 7 11 1014.2 1014.2 0.0
03/06:30pm 14.5 11.8 9.1 70 2.8 SE 13 19 7 10 1014.0 1014.0 0.0
03/06:00pm 14.9 11.7 8.6 66 3.2 SE 15 22 8 12 1013.8 1013.8 0.0
03/05:30pm 15.1 12.4 8.8 66 3.2 SE 13 20 7 11 1013.8 1013.8 0.0
03/05:00pm 14.6 11.1 8.8 68 2.9 ESE 17 22 9 12 1013.8 1013.8 0.0
03/04:30pm 14.1 10.2 8.5 69 2.8 ESE 19 26 10 14 1013.9 1013.9 0.0
03/04:00pm 15.7 10.9 8.9 64 3.5 ESE 24 32 13 17 1013.7 1013.7 0.0
03/03:30pm 15.3 12.2 9.0 66 3.2 SE 15 22 8 12 1013.5 1013.4 0.0
03/03:00pm 16.7 14.3 7.1 53 4.8 ESE 9 13 5 7 1013.4 1013.3 0.0
03/02:30pm 18.0 15.0 7.7 51 5.2 E 13 15 7 8 1013.4 1013.3 0.0
03/02:00pm 18.5 15.5 9.3 55 4.8 ENE 15 17 8 9 1013.5 1013.4 0.0
03/01:30pm 16.8 14.4 5.4 47 5.5 NE 7 9 4 5 1013.6 1013.6 0.0
03/01:00pm 16.6 12.8 5.9 49 5.2 NE 15 19 8 10 1013.5 1013.4 0.0
03/12:30pm 16.4 12.8 6.8 53 4.7 NE 15 26 8 14 1013.5 1013.4 0.0
03/12:00pm 18.9 14.6 5.4 41 6.6 WSW 17 26 9 14 1013.3 1013.2 0.0
03/11:30am 18.0 13.8 5.6 44 6.0 W 17 28 9 15 1013.7 1013.7 0.0
03/11:00am 16.7 12.7 4.7 45 5.7 W 15 19 8 10 1013.7 1013.7 0.0
03/10:30am 16.2 11.9 5.2 48 5.2 W 17 24 9 13 1013.5 1013.4 0.0
03/10:00am 15.3 11.4 5.2 51 4.8 W 15 22 8 12 1013.5 1013.4 0.0
03/09:30am 14.3 11.9 5.4 55 4.2 WSW 7 11 4 6 1013.6 1013.6 0.0
03/09:00am 14.3 11.9 5.4 55 4.2 WSW 7 11 4 6 1013.5 1013.4 0.2
03/08:30am 13.9 11.8 5.8 58 3.8 W 6 7 3 4 1013.5 1013.4 0.2
03/08:00am 12.5 10.3 6.1 65 3.0 W 7 9 4 5 1013.2 1013.1 0.2

Other Formats:

Comma delimited format used in spreadsheet applications
http://www.bom.gov.au/fwo/IDT60801/IDT60801.94988.axf

JavaScript Object Notation format (JSON) in row-major order
http://www.bom.gov.au/fwo/IDT60801/IDT60801.94988.json